<?xml version="1.0" encoding="UTF-8" standalone="no" ?>
<gpx xmlns="http://www.topografix.com/GPX/1/1" xmlns:xsi="http://www.w3.org/2001/XMLSchema-instance" xsi:schemaLocation="http://www.topografix.com/GPX/1/1 http://www.topografix.com/GPX/1/1/gpx.xsd" version="1.1" creator="VisuGPX - https://www.visugpx.com">
  <metadata>
    <name>Randonnée</name>
    <desc><![CDATA[De Péri à la grotte Sampierro Corso]]></desc>
  </metadata>
  <trk>
    <name><![CDATA[18 févr. 2015 09:59:32]]></name>
    <cmt><![CDATA[18 févr. 2015 09:59:32]]></cmt>
    <trkseg>
      <trkpt lat="42.00581" lon="8.92482">
        <ele>435</ele>
        <time>2015-02-18T08:59:32Z</time>
      </trkpt>
      <trkpt lat="42.00583" lon="8.92485">
        <ele>432</ele>
        <time>2015-02-18T08:59:56Z</time>
      </trkpt>
      <trkpt lat="42.00575" lon="8.92489">
        <ele>434</ele>
        <time>2015-02-18T09:02:33Z</time>
      </trkpt>
      <trkpt lat="42.00574" lon="8.92494">
        <ele>435</ele>
        <time>2015-02-18T09:03:32Z</time>
      </trkpt>
      <trkpt lat="42.00576" lon="8.92496">
        <ele>435</ele>
        <time>2015-02-18T09:03:49Z</time>
      </trkpt>
      <trkpt lat="42.00585" lon="8.92503">
        <ele>435</ele>
        <time>2015-02-18T09:04:25Z</time>
      </trkpt>
      <trkpt lat="42.00586" lon="8.92494">
        <ele>433</ele>
        <time>2015-02-18T09:07:27Z</time>
      </trkpt>
      <trkpt lat="42.00587" lon="8.92492">
        <ele>439</ele>
        <time>2015-02-18T09:09:28Z</time>
      </trkpt>
      <trkpt lat="42.00583" lon="8.92506">
        <ele>437</ele>
        <time>2015-02-18T09:09:39Z</time>
      </trkpt>
      <trkpt lat="42.00577" lon="8.92512">
        <ele>434</ele>
        <time>2015-02-18T09:09:58Z</time>
      </trkpt>
      <trkpt lat="42.00573" lon="8.92526">
        <ele>436</ele>
        <time>2015-02-18T09:10:24Z</time>
      </trkpt>
      <trkpt lat="42.00571" lon="8.92531">
        <ele>438</ele>
        <time>2015-02-18T09:10:48Z</time>
      </trkpt>
      <trkpt lat="42.00582" lon="8.92534">
        <ele>441</ele>
        <time>2015-02-18T09:11:13Z</time>
      </trkpt>
      <trkpt lat="42.00581" lon="8.92542">
        <ele>441</ele>
        <time>2015-02-18T09:11:29Z</time>
      </trkpt>
      <trkpt lat="42.00579" lon="8.92548">
        <ele>441</ele>
        <time>2015-02-18T09:11:38Z</time>
      </trkpt>
      <trkpt lat="42.00576" lon="8.92555">
        <ele>442</ele>
        <time>2015-02-18T09:11:58Z</time>
      </trkpt>
      <trkpt lat="42.00586" lon="8.92562">
        <ele>443</ele>
        <time>2015-02-18T09:12:17Z</time>
      </trkpt>
      <trkpt lat="42.00603" lon="8.92576">
        <ele>453</ele>
        <time>2015-02-18T09:12:58Z</time>
      </trkpt>
      <trkpt lat="42.00607" lon="8.92586">
        <ele>455</ele>
        <time>2015-02-18T09:13:13Z</time>
      </trkpt>
      <trkpt lat="42.00607" lon="8.92593">
        <ele>459</ele>
        <time>2015-02-18T09:13:25Z</time>
      </trkpt>
      <trkpt lat="42.00602" lon="8.92599">
        <ele>460</ele>
        <time>2015-02-18T09:13:39Z</time>
      </trkpt>
      <trkpt lat="42.00606" lon="8.92606">
        <ele>460</ele>
        <time>2015-02-18T09:13:58Z</time>
      </trkpt>
      <trkpt lat="42.00601" lon="8.92614">
        <ele>459</ele>
        <time>2015-02-18T09:14:16Z</time>
      </trkpt>
      <trkpt lat="42.00592" lon="8.92614">
        <ele>463</ele>
        <time>2015-02-18T09:15:33Z</time>
      </trkpt>
      <trkpt lat="42.00588" lon="8.92613">
        <ele>464</ele>
        <time>2015-02-18T09:15:40Z</time>
      </trkpt>
      <trkpt lat="42.00583" lon="8.92615">
        <ele>468</ele>
        <time>2015-02-18T09:15:48Z</time>
      </trkpt>
      <trkpt lat="42.00578" lon="8.9262">
        <ele>465</ele>
        <time>2015-02-18T09:16:20Z</time>
      </trkpt>
      <trkpt lat="42.00574" lon="8.92628">
        <ele>466</ele>
        <time>2015-02-18T09:16:39Z</time>
      </trkpt>
      <trkpt lat="42.00565" lon="8.92637">
        <ele>470</ele>
        <time>2015-02-18T09:16:59Z</time>
      </trkpt>
      <trkpt lat="42.00559" lon="8.92637">
        <ele>471</ele>
        <time>2015-02-18T09:17:10Z</time>
      </trkpt>
      <trkpt lat="42.00555" lon="8.92641">
        <ele>474</ele>
        <time>2015-02-18T09:17:20Z</time>
      </trkpt>
      <trkpt lat="42.00552" lon="8.92646">
        <ele>475</ele>
        <time>2015-02-18T09:17:33Z</time>
      </trkpt>
      <trkpt lat="42.00548" lon="8.92651">
        <ele>474</ele>
        <time>2015-02-18T09:17:41Z</time>
      </trkpt>
      <trkpt lat="42.00542" lon="8.9266">
        <ele>474</ele>
        <time>2015-02-18T09:17:55Z</time>
      </trkpt>
      <trkpt lat="42.00538" lon="8.92666">
        <ele>479</ele>
        <time>2015-02-18T09:18:10Z</time>
      </trkpt>
      <trkpt lat="42.00536" lon="8.92672">
        <ele>478</ele>
        <time>2015-02-18T09:18:26Z</time>
      </trkpt>
      <trkpt lat="42.00532" lon="8.92679">
        <ele>478</ele>
        <time>2015-02-18T09:18:42Z</time>
      </trkpt>
      <trkpt lat="42.00528" lon="8.92687">
        <ele>479</ele>
        <time>2015-02-18T09:19:00Z</time>
      </trkpt>
      <trkpt lat="42.00519" lon="8.92685">
        <ele>479</ele>
        <time>2015-02-18T09:19:14Z</time>
      </trkpt>
      <trkpt lat="42.0051" lon="8.9268">
        <ele>481</ele>
        <time>2015-02-18T09:19:28Z</time>
      </trkpt>
      <trkpt lat="42.00506" lon="8.9268">
        <ele>483</ele>
        <time>2015-02-18T09:19:33Z</time>
      </trkpt>
      <trkpt lat="42.005" lon="8.92674">
        <ele>486</ele>
        <time>2015-02-18T09:19:48Z</time>
      </trkpt>
      <trkpt lat="42.00497" lon="8.92671">
        <ele>486</ele>
        <time>2015-02-18T09:19:57Z</time>
      </trkpt>
      <trkpt lat="42.00498" lon="8.92665">
        <ele>491</ele>
        <time>2015-02-18T09:24:00Z</time>
      </trkpt>
      <trkpt lat="42.00491" lon="8.92666">
        <ele>499</ele>
        <time>2015-02-18T09:24:48Z</time>
      </trkpt>
      <trkpt lat="42.00489" lon="8.92679">
        <ele>497</ele>
        <time>2015-02-18T09:25:02Z</time>
      </trkpt>
      <trkpt lat="42.00483" lon="8.92682">
        <ele>494</ele>
        <time>2015-02-18T09:25:17Z</time>
      </trkpt>
      <trkpt lat="42.00487" lon="8.92691">
        <ele>494</ele>
        <time>2015-02-18T09:25:37Z</time>
      </trkpt>
      <trkpt lat="42.00487" lon="8.92702">
        <ele>494</ele>
        <time>2015-02-18T09:25:54Z</time>
      </trkpt>
      <trkpt lat="42.00486" lon="8.92709">
        <ele>497</ele>
        <time>2015-02-18T09:26:16Z</time>
      </trkpt>
      <trkpt lat="42.00488" lon="8.92721">
        <ele>497</ele>
        <time>2015-02-18T09:26:32Z</time>
      </trkpt>
      <trkpt lat="42.00494" lon="8.92734">
        <ele>499</ele>
        <time>2015-02-18T09:27:12Z</time>
      </trkpt>
      <trkpt lat="42.00496" lon="8.92739">
        <ele>505</ele>
        <time>2015-02-18T09:27:25Z</time>
      </trkpt>
      <trkpt lat="42.00494" lon="8.92741">
        <ele>507</ele>
        <time>2015-02-18T09:27:36Z</time>
      </trkpt>
      <trkpt lat="42.00492" lon="8.92747">
        <ele>507</ele>
        <time>2015-02-18T09:27:46Z</time>
      </trkpt>
      <trkpt lat="42.00491" lon="8.9275">
        <ele>510</ele>
        <time>2015-02-18T09:27:52Z</time>
      </trkpt>
      <trkpt lat="42.00492" lon="8.92757">
        <ele>509</ele>
        <time>2015-02-18T09:28:09Z</time>
      </trkpt>
      <trkpt lat="42.00496" lon="8.92762">
        <ele>510</ele>
        <time>2015-02-18T09:28:23Z</time>
      </trkpt>
      <trkpt lat="42.00493" lon="8.92777">
        <ele>514</ele>
        <time>2015-02-18T09:28:46Z</time>
      </trkpt>
      <trkpt lat="42.00491" lon="8.92787">
        <ele>517</ele>
        <time>2015-02-18T09:29:16Z</time>
      </trkpt>
      <trkpt lat="42.00494" lon="8.92795">
        <ele>521</ele>
        <time>2015-02-18T09:29:46Z</time>
      </trkpt>
      <trkpt lat="42.00497" lon="8.92803">
        <ele>519</ele>
        <time>2015-02-18T09:31:02Z</time>
      </trkpt>
      <trkpt lat="42.00491" lon="8.92805">
        <ele>517</ele>
        <time>2015-02-18T09:32:56Z</time>
      </trkpt>
      <trkpt lat="42.00484" lon="8.92814">
        <ele>517</ele>
        <time>2015-02-18T09:33:37Z</time>
      </trkpt>
      <trkpt lat="42.00476" lon="8.92822">
        <ele>520</ele>
        <time>2015-02-18T09:34:14Z</time>
      </trkpt>
      <trkpt lat="42.00476" lon="8.92829">
        <ele>522</ele>
        <time>2015-02-18T09:34:31Z</time>
      </trkpt>
      <trkpt lat="42.0047" lon="8.9284">
        <ele>523</ele>
        <time>2015-02-18T09:34:54Z</time>
      </trkpt>
      <trkpt lat="42.00467" lon="8.92846">
        <ele>526</ele>
        <time>2015-02-18T09:35:08Z</time>
      </trkpt>
      <trkpt lat="42.00459" lon="8.92847">
        <ele>527</ele>
        <time>2015-02-18T09:35:25Z</time>
      </trkpt>
      <trkpt lat="42.0046" lon="8.92853">
        <ele>541</ele>
        <time>2015-02-18T09:37:18Z</time>
      </trkpt>
      <trkpt lat="42.00456" lon="8.9286">
        <ele>540</ele>
        <time>2015-02-18T09:37:37Z</time>
      </trkpt>
      <trkpt lat="42.00457" lon="8.9287">
        <ele>539</ele>
        <time>2015-02-18T09:38:14Z</time>
      </trkpt>
      <trkpt lat="42.00455" lon="8.92878">
        <ele>544</ele>
        <time>2015-02-18T09:39:03Z</time>
      </trkpt>
      <trkpt lat="42.00448" lon="8.92881">
        <ele>549</ele>
        <time>2015-02-18T09:39:56Z</time>
      </trkpt>
      <trkpt lat="42.00445" lon="8.92886">
        <ele>548</ele>
        <time>2015-02-18T09:40:13Z</time>
      </trkpt>
      <trkpt lat="42.0044" lon="8.92888">
        <ele>545</ele>
        <time>2015-02-18T09:40:27Z</time>
      </trkpt>
      <trkpt lat="42.00428" lon="8.92901">
        <ele>550</ele>
        <time>2015-02-18T09:41:03Z</time>
      </trkpt>
      <trkpt lat="42.00419" lon="8.9292">
        <ele>554</ele>
        <time>2015-02-18T09:41:47Z</time>
      </trkpt>
      <trkpt lat="42.00418" lon="8.92924">
        <ele>557</ele>
        <time>2015-02-18T09:42:09Z</time>
      </trkpt>
      <trkpt lat="42.00417" lon="8.92941">
        <ele>558</ele>
        <time>2015-02-18T09:42:34Z</time>
      </trkpt>
      <trkpt lat="42.0042" lon="8.92949">
        <ele>557</ele>
        <time>2015-02-18T09:42:48Z</time>
      </trkpt>
      <trkpt lat="42.00418" lon="8.92964">
        <ele>554</ele>
        <time>2015-02-18T09:43:04Z</time>
      </trkpt>
      <trkpt lat="42.0041" lon="8.92987">
        <ele>562</ele>
        <time>2015-02-18T09:43:53Z</time>
      </trkpt>
      <trkpt lat="42.00399" lon="8.93006">
        <ele>569</ele>
        <time>2015-02-18T09:44:34Z</time>
      </trkpt>
      <trkpt lat="42.00397" lon="8.93009">
        <ele>572</ele>
        <time>2015-02-18T09:44:45Z</time>
      </trkpt>
      <trkpt lat="42.00394" lon="8.93023">
        <ele>575</ele>
        <time>2015-02-18T09:45:21Z</time>
      </trkpt>
      <trkpt lat="42.00394" lon="8.93029">
        <ele>574</ele>
        <time>2015-02-18T09:45:33Z</time>
      </trkpt>
      <trkpt lat="42.00396" lon="8.93047">
        <ele>576</ele>
        <time>2015-02-18T09:46:04Z</time>
      </trkpt>
      <trkpt lat="42.00398" lon="8.93053">
        <ele>580</ele>
        <time>2015-02-18T09:46:15Z</time>
      </trkpt>
      <trkpt lat="42.00397" lon="8.93079">
        <ele>579</ele>
        <time>2015-02-18T09:46:49Z</time>
      </trkpt>
      <trkpt lat="42.00396" lon="8.93094">
        <ele>580</ele>
        <time>2015-02-18T09:47:14Z</time>
      </trkpt>
      <trkpt lat="42.00393" lon="8.93106">
        <ele>573</ele>
        <time>2015-02-18T09:47:33Z</time>
      </trkpt>
      <trkpt lat="42.0039" lon="8.93112">
        <ele>574</ele>
        <time>2015-02-18T09:47:55Z</time>
      </trkpt>
      <trkpt lat="42.0039" lon="8.93119">
        <ele>575</ele>
        <time>2015-02-18T09:48:20Z</time>
      </trkpt>
      <trkpt lat="42.00393" lon="8.93122">
        <ele>591</ele>
        <time>2015-02-18T09:49:39Z</time>
      </trkpt>
      <trkpt lat="42.00402" lon="8.93121">
        <ele>592</ele>
        <time>2015-02-18T09:49:50Z</time>
      </trkpt>
      <trkpt lat="42.0041" lon="8.93119">
        <ele>597</ele>
        <time>2015-02-18T09:50:09Z</time>
      </trkpt>
      <trkpt lat="42.00409" lon="8.93133">
        <ele>602</ele>
        <time>2015-02-18T09:50:42Z</time>
      </trkpt>
      <trkpt lat="42.00409" lon="8.93147">
        <ele>601</ele>
        <time>2015-02-18T09:51:00Z</time>
      </trkpt>
      <trkpt lat="42.00411" lon="8.93157">
        <ele>602</ele>
        <time>2015-02-18T09:52:08Z</time>
      </trkpt>
      <trkpt lat="42.00417" lon="8.93155">
        <ele>604</ele>
        <time>2015-02-18T09:52:41Z</time>
      </trkpt>
      <trkpt lat="42.00426" lon="8.93153">
        <ele>606</ele>
        <time>2015-02-18T09:53:02Z</time>
      </trkpt>
      <trkpt lat="42.00432" lon="8.93143">
        <ele>613</ele>
        <time>2015-02-18T09:53:14Z</time>
      </trkpt>
      <trkpt lat="42.00434" lon="8.93136">
        <ele>619</ele>
        <time>2015-02-18T09:53:28Z</time>
      </trkpt>
      <trkpt lat="42.00438" lon="8.93133">
        <ele>621</ele>
        <time>2015-02-18T09:53:39Z</time>
      </trkpt>
      <trkpt lat="42.00441" lon="8.93145">
        <ele>624</ele>
        <time>2015-02-18T09:54:02Z</time>
      </trkpt>
      <trkpt lat="42.00442" lon="8.93158">
        <ele>626</ele>
        <time>2015-02-18T09:55:19Z</time>
      </trkpt>
      <trkpt lat="42.00443" lon="8.93175">
        <ele>628</ele>
        <time>2015-02-18T09:55:58Z</time>
      </trkpt>
      <trkpt lat="42.00443" lon="8.93196">
        <ele>629</ele>
        <time>2015-02-18T09:56:19Z</time>
      </trkpt>
      <trkpt lat="42.00447" lon="8.93202">
        <ele>634</ele>
        <time>2015-02-18T09:56:51Z</time>
      </trkpt>
      <trkpt lat="42.00458" lon="8.93204">
        <ele>627</ele>
        <time>2015-02-18T09:57:19Z</time>
      </trkpt>
      <trkpt lat="42.00458" lon="8.93211">
        <ele>617</ele>
        <time>2015-02-18T09:57:47Z</time>
      </trkpt>
      <trkpt lat="42.00465" lon="8.93228">
        <ele>619</ele>
        <time>2015-02-18T09:58:18Z</time>
      </trkpt>
      <trkpt lat="42.00466" lon="8.93248">
        <ele>624</ele>
        <time>2015-02-18T09:58:42Z</time>
      </trkpt>
      <trkpt lat="42.00469" lon="8.93253">
        <ele>628</ele>
        <time>2015-02-18T09:58:55Z</time>
      </trkpt>
      <trkpt lat="42.00474" lon="8.93265">
        <ele>628</ele>
        <time>2015-02-18T09:59:04Z</time>
      </trkpt>
      <trkpt lat="42.00473" lon="8.93282">
        <ele>630</ele>
        <time>2015-02-18T09:59:29Z</time>
      </trkpt>
      <trkpt lat="42.00467" lon="8.93312">
        <ele>630</ele>
        <time>2015-02-18T10:00:07Z</time>
      </trkpt>
      <trkpt lat="42.00469" lon="8.93351">
        <ele>638</ele>
        <time>2015-02-18T10:00:59Z</time>
      </trkpt>
      <trkpt lat="42.00469" lon="8.9336">
        <ele>643</ele>
        <time>2015-02-18T10:01:22Z</time>
      </trkpt>
      <trkpt lat="42.00471" lon="8.93365">
        <ele>642</ele>
        <time>2015-02-18T10:01:39Z</time>
      </trkpt>
      <trkpt lat="42.00473" lon="8.93385">
        <ele>647</ele>
        <time>2015-02-18T10:02:02Z</time>
      </trkpt>
      <trkpt lat="42.00471" lon="8.93391">
        <ele>649</ele>
        <time>2015-02-18T10:02:20Z</time>
      </trkpt>
      <trkpt lat="42.00472" lon="8.93398">
        <ele>648</ele>
        <time>2015-02-18T10:02:32Z</time>
      </trkpt>
      <trkpt lat="42.00475" lon="8.9341">
        <ele>645</ele>
        <time>2015-02-18T10:02:50Z</time>
      </trkpt>
      <trkpt lat="42.00473" lon="8.93416">
        <ele>643</ele>
        <time>2015-02-18T10:03:12Z</time>
      </trkpt>
      <trkpt lat="42.00479" lon="8.93432">
        <ele>645</ele>
        <time>2015-02-18T10:03:30Z</time>
      </trkpt>
      <trkpt lat="42.0048" lon="8.93441">
        <ele>645</ele>
        <time>2015-02-18T10:03:53Z</time>
      </trkpt>
      <trkpt lat="42.00482" lon="8.93449">
        <ele>647</ele>
        <time>2015-02-18T10:04:16Z</time>
      </trkpt>
      <trkpt lat="42.00482" lon="8.93458">
        <ele>647</ele>
        <time>2015-02-18T10:04:40Z</time>
      </trkpt>
      <trkpt lat="42.00487" lon="8.93468">
        <ele>648</ele>
        <time>2015-02-18T10:04:55Z</time>
      </trkpt>
      <trkpt lat="42.00482" lon="8.93483">
        <ele>656</ele>
        <time>2015-02-18T10:05:12Z</time>
      </trkpt>
      <trkpt lat="42.00485" lon="8.93489">
        <ele>669</ele>
        <time>2015-02-18T10:06:03Z</time>
      </trkpt>
      <trkpt lat="42.00493" lon="8.93509">
        <ele>673</ele>
        <time>2015-02-18T10:06:41Z</time>
      </trkpt>
      <trkpt lat="42.00494" lon="8.93521">
        <ele>672</ele>
        <time>2015-02-18T10:06:58Z</time>
      </trkpt>
      <trkpt lat="42.00486" lon="8.93523">
        <ele>666</ele>
        <time>2015-02-18T10:10:28Z</time>
      </trkpt>
      <trkpt lat="42.00491" lon="8.93528">
        <ele>672</ele>
        <time>2015-02-18T10:16:33Z</time>
      </trkpt>
      <trkpt lat="42.00493" lon="8.9353">
        <ele>676</ele>
        <time>2015-02-18T10:17:57Z</time>
      </trkpt>
      <trkpt lat="42.0049" lon="8.93534">
        <ele>679</ele>
        <time>2015-02-18T10:21:15Z</time>
      </trkpt>
      <trkpt lat="42.00486" lon="8.93545">
        <ele>679</ele>
        <time>2015-02-18T10:21:28Z</time>
      </trkpt>
      <trkpt lat="42.00488" lon="8.93548">
        <ele>681</ele>
        <time>2015-02-18T10:22:03Z</time>
      </trkpt>
      <trkpt lat="42.00488" lon="8.93569">
        <ele>686</ele>
        <time>2015-02-18T10:22:37Z</time>
      </trkpt>
      <trkpt lat="42.00489" lon="8.93582">
        <ele>688</ele>
        <time>2015-02-18T10:22:54Z</time>
      </trkpt>
      <trkpt lat="42.00487" lon="8.93597">
        <ele>689</ele>
        <time>2015-02-18T10:23:11Z</time>
      </trkpt>
      <trkpt lat="42.00486" lon="8.93609">
        <ele>687</ele>
        <time>2015-02-18T10:23:50Z</time>
      </trkpt>
      <trkpt lat="42.00488" lon="8.93625">
        <ele>693</ele>
        <time>2015-02-18T10:24:23Z</time>
      </trkpt>
      <trkpt lat="42.00487" lon="8.93637">
        <ele>697</ele>
        <time>2015-02-18T10:24:59Z</time>
      </trkpt>
      <trkpt lat="42.00489" lon="8.93654">
        <ele>699</ele>
        <time>2015-02-18T10:25:19Z</time>
      </trkpt>
      <trkpt lat="42.00497" lon="8.93659">
        <ele>701</ele>
        <time>2015-02-18T10:25:50Z</time>
      </trkpt>
      <trkpt lat="42.00498" lon="8.93665">
        <ele>702</ele>
        <time>2015-02-18T10:26:10Z</time>
      </trkpt>
      <trkpt lat="42.00506" lon="8.93666">
        <ele>702</ele>
        <time>2015-02-18T10:26:22Z</time>
      </trkpt>
      <trkpt lat="42.00507" lon="8.9367">
        <ele>699</ele>
        <time>2015-02-18T10:26:44Z</time>
      </trkpt>
      <trkpt lat="42.00508" lon="8.93681">
        <ele>707</ele>
        <time>2015-02-18T10:27:51Z</time>
      </trkpt>
      <trkpt lat="42.00507" lon="8.93672">
        <ele>706</ele>
        <time>2015-02-18T10:28:41Z</time>
      </trkpt>
      <trkpt lat="42.00507" lon="8.93668">
        <ele>706</ele>
        <time>2015-02-18T10:28:52Z</time>
      </trkpt>
      <trkpt lat="42.00506" lon="8.93665">
        <ele>705</ele>
        <time>2015-02-18T10:29:43Z</time>
      </trkpt>
      <trkpt lat="42.00503" lon="8.93665">
        <ele>705</ele>
        <time>2015-02-18T10:30:00Z</time>
      </trkpt>
      <trkpt lat="42.00502" lon="8.93668">
        <ele>705</ele>
        <time>2015-02-18T10:30:12Z</time>
      </trkpt>
      <trkpt lat="42.00497" lon="8.93681">
        <ele>706</ele>
        <time>2015-02-18T10:30:54Z</time>
      </trkpt>
      <trkpt lat="42.00494" lon="8.93692">
        <ele>705</ele>
        <time>2015-02-18T10:31:16Z</time>
      </trkpt>
      <trkpt lat="42.00493" lon="8.93695">
        <ele>704</ele>
        <time>2015-02-18T10:31:22Z</time>
      </trkpt>
      <trkpt lat="42.00495" lon="8.93701">
        <ele>705</ele>
        <time>2015-02-18T10:31:36Z</time>
      </trkpt>
      <trkpt lat="42.00492" lon="8.93713">
        <ele>707</ele>
        <time>2015-02-18T10:31:48Z</time>
      </trkpt>
      <trkpt lat="42.00491" lon="8.93716">
        <ele>707</ele>
        <time>2015-02-18T10:31:54Z</time>
      </trkpt>
      <trkpt lat="42.00491" lon="8.93725">
        <ele>709</ele>
        <time>2015-02-18T10:32:04Z</time>
      </trkpt>
      <trkpt lat="42.00491" lon="8.93729">
        <ele>710</ele>
        <time>2015-02-18T10:32:20Z</time>
      </trkpt>
      <trkpt lat="42.00492" lon="8.93737">
        <ele>717</ele>
        <time>2015-02-18T10:33:06Z</time>
      </trkpt>
      <trkpt lat="42.00491" lon="8.93755">
        <ele>723</ele>
        <time>2015-02-18T10:33:53Z</time>
      </trkpt>
      <trkpt lat="42.00494" lon="8.93763">
        <ele>725</ele>
        <time>2015-02-18T10:34:08Z</time>
      </trkpt>
      <trkpt lat="42.00497" lon="8.93768">
        <ele>725</ele>
        <time>2015-02-18T10:34:16Z</time>
      </trkpt>
      <trkpt lat="42.00497" lon="8.93772">
        <ele>724</ele>
        <time>2015-02-18T10:34:26Z</time>
      </trkpt>
      <trkpt lat="42.00496" lon="8.93779">
        <ele>723</ele>
        <time>2015-02-18T10:34:34Z</time>
      </trkpt>
      <trkpt lat="42.00497" lon="8.93783">
        <ele>723</ele>
        <time>2015-02-18T10:34:42Z</time>
      </trkpt>
      <trkpt lat="42.00495" lon="8.93804">
        <ele>726</ele>
        <time>2015-02-18T10:35:09Z</time>
      </trkpt>
      <trkpt lat="42.00487" lon="8.93825">
        <ele>731</ele>
        <time>2015-02-18T10:35:52Z</time>
      </trkpt>
      <trkpt lat="42.00479" lon="8.93838">
        <ele>731</ele>
        <time>2015-02-18T10:36:14Z</time>
      </trkpt>
      <trkpt lat="42.00473" lon="8.93858">
        <ele>734</ele>
        <time>2015-02-18T10:36:51Z</time>
      </trkpt>
      <trkpt lat="42.00471" lon="8.93885">
        <ele>737</ele>
        <time>2015-02-18T10:37:32Z</time>
      </trkpt>
      <trkpt lat="42.00471" lon="8.93895">
        <ele>737</ele>
        <time>2015-02-18T10:37:49Z</time>
      </trkpt>
      <trkpt lat="42.00474" lon="8.93908">
        <ele>734</ele>
        <time>2015-02-18T10:38:15Z</time>
      </trkpt>
      <trkpt lat="42.00472" lon="8.9392">
        <ele>736</ele>
        <time>2015-02-18T10:38:42Z</time>
      </trkpt>
      <trkpt lat="42.00482" lon="8.93941">
        <ele>743</ele>
        <time>2015-02-18T10:39:29Z</time>
      </trkpt>
      <trkpt lat="42.00478" lon="8.93946">
        <ele>753</ele>
        <time>2015-02-18T10:40:26Z</time>
      </trkpt>
      <trkpt lat="42.00478" lon="8.93953">
        <ele>754</ele>
        <time>2015-02-18T10:40:51Z</time>
      </trkpt>
      <trkpt lat="42.00479" lon="8.93954">
        <ele>753</ele>
        <time>2015-02-18T10:41:31Z</time>
      </trkpt>
      <trkpt lat="42.00475" lon="8.93965">
        <ele>753</ele>
        <time>2015-02-18T10:42:00Z</time>
      </trkpt>
      <trkpt lat="42.00473" lon="8.93975">
        <ele>758</ele>
        <time>2015-02-18T10:42:40Z</time>
      </trkpt>
      <trkpt lat="42.00468" lon="8.93976">
        <ele>757</ele>
        <time>2015-02-18T10:42:52Z</time>
      </trkpt>
      <trkpt lat="42.00474" lon="8.93992">
        <ele>759</ele>
        <time>2015-02-18T10:43:50Z</time>
      </trkpt>
      <trkpt lat="42.00472" lon="8.93997">
        <ele>758</ele>
        <time>2015-02-18T10:44:09Z</time>
      </trkpt>
      <trkpt lat="42.0047" lon="8.94006">
        <ele>761</ele>
        <time>2015-02-18T10:44:41Z</time>
      </trkpt>
      <trkpt lat="42.00459" lon="8.94013">
        <ele>772</ele>
        <time>2015-02-18T10:46:12Z</time>
      </trkpt>
      <trkpt lat="42.00453" lon="8.94016">
        <ele>773</ele>
        <time>2015-02-18T10:47:20Z</time>
      </trkpt>
      <trkpt lat="42.00451" lon="8.94026">
        <ele>778</ele>
        <time>2015-02-18T10:48:31Z</time>
      </trkpt>
      <trkpt lat="42.00453" lon="8.94034">
        <ele>784</ele>
        <time>2015-02-18T10:49:08Z</time>
      </trkpt>
      <trkpt lat="42.00449" lon="8.94043">
        <ele>790</ele>
        <time>2015-02-18T10:49:27Z</time>
      </trkpt>
      <trkpt lat="42.00453" lon="8.94052">
        <ele>795</ele>
        <time>2015-02-18T10:49:57Z</time>
      </trkpt>
      <trkpt lat="42.00451" lon="8.94054">
        <ele>798</ele>
        <time>2015-02-18T10:50:08Z</time>
      </trkpt>
      <trkpt lat="42.0045" lon="8.94061">
        <ele>797</ele>
        <time>2015-02-18T10:50:57Z</time>
      </trkpt>
      <trkpt lat="42.00444" lon="8.94065">
        <ele>796</ele>
        <time>2015-02-18T10:51:14Z</time>
      </trkpt>
      <trkpt lat="42.00444" lon="8.94072">
        <ele>796</ele>
        <time>2015-02-18T10:51:33Z</time>
      </trkpt>
      <trkpt lat="42.00446" lon="8.94083">
        <ele>795</ele>
        <time>2015-02-18T10:52:00Z</time>
      </trkpt>
      <trkpt lat="42.0045" lon="8.94086">
        <ele>793</ele>
        <time>2015-02-18T10:52:21Z</time>
      </trkpt>
      <trkpt lat="42.00446" lon="8.94091">
        <ele>788</ele>
        <time>2015-02-18T10:52:51Z</time>
      </trkpt>
      <trkpt lat="42.00444" lon="8.94101">
        <ele>799</ele>
        <time>2015-02-18T10:53:34Z</time>
      </trkpt>
      <trkpt lat="42.00442" lon="8.94112">
        <ele>800</ele>
        <time>2015-02-18T10:54:13Z</time>
      </trkpt>
      <trkpt lat="42.00443" lon="8.94117">
        <ele>807</ele>
        <time>2015-02-18T10:55:03Z</time>
      </trkpt>
      <trkpt lat="42.00444" lon="8.94125">
        <ele>806</ele>
        <time>2015-02-18T10:55:18Z</time>
      </trkpt>
      <trkpt lat="42.00446" lon="8.94133">
        <ele>811</ele>
        <time>2015-02-18T10:55:51Z</time>
      </trkpt>
      <trkpt lat="42.00445" lon="8.9414">
        <ele>815</ele>
        <time>2015-02-18T10:56:22Z</time>
      </trkpt>
      <trkpt lat="42.00445" lon="8.94147">
        <ele>816</ele>
        <time>2015-02-18T10:56:50Z</time>
      </trkpt>
      <trkpt lat="42.00445" lon="8.94151">
        <ele>815</ele>
        <time>2015-02-18T10:57:03Z</time>
      </trkpt>
      <trkpt lat="42.00448" lon="8.94157">
        <ele>817</ele>
        <time>2015-02-18T10:57:30Z</time>
      </trkpt>
      <trkpt lat="42.00451" lon="8.94163">
        <ele>816</ele>
        <time>2015-02-18T10:57:40Z</time>
      </trkpt>
      <trkpt lat="42.00452" lon="8.94168">
        <ele>815</ele>
        <time>2015-02-18T10:58:03Z</time>
      </trkpt>
      <trkpt lat="42.00453" lon="8.94172">
        <ele>817</ele>
        <time>2015-02-18T10:58:26Z</time>
      </trkpt>
      <trkpt lat="42.00453" lon="8.94182">
        <ele>827</ele>
        <time>2015-02-18T10:59:06Z</time>
      </trkpt>
      <trkpt lat="42.00455" lon="8.94185">
        <ele>828</ele>
        <time>2015-02-18T10:59:17Z</time>
      </trkpt>
      <trkpt lat="42.00461" lon="8.94194">
        <ele>827</ele>
        <time>2015-02-18T10:59:50Z</time>
      </trkpt>
      <trkpt lat="42.00466" lon="8.94205">
        <ele>829</ele>
        <time>2015-02-18T11:00:14Z</time>
      </trkpt>
      <trkpt lat="42.00469" lon="8.9421">
        <ele>827</ele>
        <time>2015-02-18T11:00:35Z</time>
      </trkpt>
      <trkpt lat="42.0047" lon="8.94217">
        <ele>828</ele>
        <time>2015-02-18T11:00:42Z</time>
      </trkpt>
      <trkpt lat="42.00473" lon="8.94224">
        <ele>827</ele>
        <time>2015-02-18T11:00:49Z</time>
      </trkpt>
      <trkpt lat="42.00475" lon="8.94226">
        <ele>825</ele>
        <time>2015-02-18T11:01:11Z</time>
      </trkpt>
      <trkpt lat="42.00476" lon="8.94232">
        <ele>828</ele>
        <time>2015-02-18T11:02:56Z</time>
      </trkpt>
      <trkpt lat="42.00462" lon="8.9425">
        <ele>829</ele>
        <time>2015-02-18T11:03:45Z</time>
      </trkpt>
      <trkpt lat="42.00466" lon="8.94255">
        <ele>826</ele>
        <time>2015-02-18T11:04:08Z</time>
      </trkpt>
      <trkpt lat="42.00468" lon="8.9426">
        <ele>827</ele>
        <time>2015-02-18T11:04:26Z</time>
      </trkpt>
      <trkpt lat="42.0047" lon="8.94267">
        <ele>827</ele>
        <time>2015-02-18T11:04:49Z</time>
      </trkpt>
      <trkpt lat="42.00471" lon="8.94282">
        <ele>833</ele>
        <time>2015-02-18T11:05:30Z</time>
      </trkpt>
      <trkpt lat="42.00468" lon="8.9429">
        <ele>833</ele>
        <time>2015-02-18T11:05:54Z</time>
      </trkpt>
      <trkpt lat="42.00461" lon="8.9429">
        <ele>833</ele>
        <time>2015-02-18T11:06:24Z</time>
      </trkpt>
      <trkpt lat="42.00458" lon="8.94295">
        <ele>832</ele>
        <time>2015-02-18T11:06:54Z</time>
      </trkpt>
      <trkpt lat="42.00453" lon="8.94297">
        <ele>832</ele>
        <time>2015-02-18T11:07:29Z</time>
      </trkpt>
      <trkpt lat="42.0045" lon="8.94303">
        <ele>833</ele>
        <time>2015-02-18T11:07:56Z</time>
      </trkpt>
      <trkpt lat="42.00444" lon="8.94304">
        <ele>836</ele>
        <time>2015-02-18T11:08:58Z</time>
      </trkpt>
      <trkpt lat="42.00441" lon="8.94297">
        <ele>839</ele>
        <time>2015-02-18T11:10:03Z</time>
      </trkpt>
      <trkpt lat="42.00442" lon="8.94294">
        <ele>838</ele>
        <time>2015-02-18T11:10:44Z</time>
      </trkpt>
      <trkpt lat="42.0045" lon="8.94285">
        <ele>838</ele>
        <time>2015-02-18T11:11:47Z</time>
      </trkpt>
      <trkpt lat="42.00431" lon="8.94292">
        <ele>838</ele>
        <time>2015-02-18T11:14:34Z</time>
      </trkpt>
      <trkpt lat="42.00427" lon="8.94297">
        <ele>838</ele>
        <time>2015-02-18T11:19:44Z</time>
      </trkpt>
      <trkpt lat="42.00443" lon="8.94295">
        <ele>851</ele>
        <time>2015-02-18T11:21:54Z</time>
      </trkpt>
      <trkpt lat="42.00445" lon="8.94307">
        <ele>845</ele>
        <time>2015-02-18T11:24:27Z</time>
      </trkpt>
      <trkpt lat="42.00454" lon="8.94301">
        <ele>841</ele>
        <time>2015-02-18T11:24:57Z</time>
      </trkpt>
      <trkpt lat="42.00457" lon="8.94295">
        <ele>837</ele>
        <time>2015-02-18T11:26:03Z</time>
      </trkpt>
      <trkpt lat="42.00467" lon="8.94288">
        <ele>833</ele>
        <time>2015-02-18T11:26:56Z</time>
      </trkpt>
      <trkpt lat="42.00468" lon="8.94282">
        <ele>832</ele>
        <time>2015-02-18T11:27:12Z</time>
      </trkpt>
      <trkpt lat="42.00472" lon="8.94275">
        <ele>832</ele>
        <time>2015-02-18T11:27:24Z</time>
      </trkpt>
      <trkpt lat="42.00474" lon="8.9427">
        <ele>833</ele>
        <time>2015-02-18T11:27:41Z</time>
      </trkpt>
      <trkpt lat="42.0047" lon="8.94259">
        <ele>830</ele>
        <time>2015-02-18T11:28:19Z</time>
      </trkpt>
      <trkpt lat="42.0047" lon="8.94252">
        <ele>827</ele>
        <time>2015-02-18T11:28:42Z</time>
      </trkpt>
      <trkpt lat="42.00469" lon="8.94246">
        <ele>828</ele>
        <time>2015-02-18T11:29:09Z</time>
      </trkpt>
      <trkpt lat="42.00469" lon="8.94232">
        <ele>823</ele>
        <time>2015-02-18T11:29:50Z</time>
      </trkpt>
      <trkpt lat="42.0047" lon="8.94229">
        <ele>823</ele>
        <time>2015-02-18T11:29:56Z</time>
      </trkpt>
      <trkpt lat="42.00472" lon="8.94226">
        <ele>826</ele>
        <time>2015-02-18T11:30:07Z</time>
      </trkpt>
      <trkpt lat="42.00474" lon="8.9422">
        <ele>825</ele>
        <time>2015-02-18T11:30:16Z</time>
      </trkpt>
      <trkpt lat="42.00471" lon="8.94215">
        <ele>824</ele>
        <time>2015-02-18T11:30:24Z</time>
      </trkpt>
      <trkpt lat="42.00467" lon="8.94211">
        <ele>828</ele>
        <time>2015-02-18T11:30:34Z</time>
      </trkpt>
      <trkpt lat="42.00465" lon="8.94209">
        <ele>828</ele>
        <time>2015-02-18T11:30:40Z</time>
      </trkpt>
      <trkpt lat="42.00461" lon="8.94197">
        <ele>825</ele>
        <time>2015-02-18T11:30:55Z</time>
      </trkpt>
      <trkpt lat="42.00457" lon="8.9419">
        <ele>826</ele>
        <time>2015-02-18T11:31:08Z</time>
      </trkpt>
      <trkpt lat="42.00454" lon="8.94181">
        <ele>821</ele>
        <time>2015-02-18T11:31:39Z</time>
      </trkpt>
      <trkpt lat="42.00453" lon="8.94178">
        <ele>821</ele>
        <time>2015-02-18T11:31:45Z</time>
      </trkpt>
      <trkpt lat="42.00452" lon="8.94171">
        <ele>817</ele>
        <time>2015-02-18T11:32:56Z</time>
      </trkpt>
      <trkpt lat="42.00449" lon="8.94168">
        <ele>815</ele>
        <time>2015-02-18T11:33:04Z</time>
      </trkpt>
      <trkpt lat="42.00445" lon="8.94159">
        <ele>813</ele>
        <time>2015-02-18T11:35:23Z</time>
      </trkpt>
      <trkpt lat="42.00447" lon="8.94153">
        <ele>814</ele>
        <time>2015-02-18T11:35:43Z</time>
      </trkpt>
      <trkpt lat="42.00444" lon="8.94141">
        <ele>809</ele>
        <time>2015-02-18T11:36:31Z</time>
      </trkpt>
      <trkpt lat="42.00442" lon="8.94137">
        <ele>807</ele>
        <time>2015-02-18T11:37:14Z</time>
      </trkpt>
      <trkpt lat="42.0044" lon="8.9413">
        <ele>805</ele>
        <time>2015-02-18T11:37:42Z</time>
      </trkpt>
      <trkpt lat="42.00441" lon="8.94124">
        <ele>802</ele>
        <time>2015-02-18T11:38:26Z</time>
      </trkpt>
      <trkpt lat="42.00445" lon="8.94108">
        <ele>794</ele>
        <time>2015-02-18T11:39:08Z</time>
      </trkpt>
      <trkpt lat="42.00444" lon="8.94102">
        <ele>793</ele>
        <time>2015-02-18T11:39:26Z</time>
      </trkpt>
      <trkpt lat="42.00445" lon="8.94098">
        <ele>792</ele>
        <time>2015-02-18T11:39:39Z</time>
      </trkpt>
      <trkpt lat="42.00445" lon="8.9409">
        <ele>796</ele>
        <time>2015-02-18T11:40:15Z</time>
      </trkpt>
      <trkpt lat="42.00447" lon="8.9408">
        <ele>795</ele>
        <time>2015-02-18T11:40:51Z</time>
      </trkpt>
      <trkpt lat="42.00447" lon="8.94077">
        <ele>796</ele>
        <time>2015-02-18T11:40:57Z</time>
      </trkpt>
      <trkpt lat="42.00447" lon="8.94068">
        <ele>795</ele>
        <time>2015-02-18T11:41:06Z</time>
      </trkpt>
      <trkpt lat="42.00453" lon="8.94056">
        <ele>789</ele>
        <time>2015-02-18T11:41:48Z</time>
      </trkpt>
      <trkpt lat="42.00453" lon="8.94048">
        <ele>786</ele>
        <time>2015-02-18T11:42:19Z</time>
      </trkpt>
      <trkpt lat="42.0045" lon="8.94038">
        <ele>780</ele>
        <time>2015-02-18T11:42:41Z</time>
      </trkpt>
      <trkpt lat="42.0045" lon="8.94027">
        <ele>776</ele>
        <time>2015-02-18T11:43:18Z</time>
      </trkpt>
      <trkpt lat="42.00453" lon="8.94019">
        <ele>775</ele>
        <time>2015-02-18T11:44:12Z</time>
      </trkpt>
      <trkpt lat="42.0046" lon="8.94019">
        <ele>778</ele>
        <time>2015-02-18T11:44:48Z</time>
      </trkpt>
      <trkpt lat="42.00465" lon="8.94014">
        <ele>772</ele>
        <time>2015-02-18T11:46:44Z</time>
      </trkpt>
      <trkpt lat="42.00467" lon="8.94006">
        <ele>760</ele>
        <time>2015-02-18T11:47:30Z</time>
      </trkpt>
      <trkpt lat="42.00472" lon="8.9399">
        <ele>758</ele>
        <time>2015-02-18T11:48:06Z</time>
      </trkpt>
      <trkpt lat="42.0047" lon="8.93979">
        <ele>751</ele>
        <time>2015-02-18T11:48:39Z</time>
      </trkpt>
      <trkpt lat="42.00473" lon="8.93972">
        <ele>751</ele>
        <time>2015-02-18T11:48:58Z</time>
      </trkpt>
      <trkpt lat="42.00473" lon="8.9396">
        <ele>746</ele>
        <time>2015-02-18T11:49:26Z</time>
      </trkpt>
      <trkpt lat="42.00478" lon="8.93959">
        <ele>746</ele>
        <time>2015-02-18T11:49:55Z</time>
      </trkpt>
      <trkpt lat="42.0048" lon="8.93956">
        <ele>745</ele>
        <time>2015-02-18T11:50:02Z</time>
      </trkpt>
      <trkpt lat="42.00483" lon="8.93947">
        <ele>740</ele>
        <time>2015-02-18T11:50:44Z</time>
      </trkpt>
      <trkpt lat="42.00485" lon="8.93943">
        <ele>740</ele>
        <time>2015-02-18T11:50:59Z</time>
      </trkpt>
      <trkpt lat="42.00487" lon="8.9393">
        <ele>736</ele>
        <time>2015-02-18T11:51:36Z</time>
      </trkpt>
      <trkpt lat="42.00484" lon="8.93925">
        <ele>737</ele>
        <time>2015-02-18T11:51:51Z</time>
      </trkpt>
      <trkpt lat="42.00481" lon="8.93919">
        <ele>734</ele>
        <time>2015-02-18T11:52:08Z</time>
      </trkpt>
      <trkpt lat="42.0048" lon="8.93903">
        <ele>724</ele>
        <time>2015-02-18T11:52:51Z</time>
      </trkpt>
      <trkpt lat="42.00475" lon="8.93882">
        <ele>715</ele>
        <time>2015-02-18T11:53:18Z</time>
      </trkpt>
      <trkpt lat="42.00481" lon="8.93863">
        <ele>707</ele>
        <time>2015-02-18T11:53:47Z</time>
      </trkpt>
      <trkpt lat="42.00484" lon="8.93851">
        <ele>701</ele>
        <time>2015-02-18T11:54:01Z</time>
      </trkpt>
      <trkpt lat="42.00493" lon="8.93843">
        <ele>704</ele>
        <time>2015-02-18T11:54:19Z</time>
      </trkpt>
      <trkpt lat="42.00494" lon="8.93833">
        <ele>709</ele>
        <time>2015-02-18T11:54:26Z</time>
      </trkpt>
      <trkpt lat="42.00497" lon="8.93812">
        <ele>721</ele>
        <time>2015-02-18T11:54:41Z</time>
      </trkpt>
      <trkpt lat="42.00497" lon="8.93799">
        <ele>719</ele>
        <time>2015-02-18T11:55:00Z</time>
      </trkpt>
      <trkpt lat="42.00499" lon="8.93794">
        <ele>715</ele>
        <time>2015-02-18T11:55:10Z</time>
      </trkpt>
      <trkpt lat="42.00498" lon="8.93786">
        <ele>715</ele>
        <time>2015-02-18T11:55:30Z</time>
      </trkpt>
      <trkpt lat="42.00495" lon="8.93778">
        <ele>715</ele>
        <time>2015-02-18T11:55:45Z</time>
      </trkpt>
      <trkpt lat="42.00498" lon="8.93773">
        <ele>715</ele>
        <time>2015-02-18T11:55:57Z</time>
      </trkpt>
      <trkpt lat="42.00496" lon="8.93764">
        <ele>713</ele>
        <time>2015-02-18T11:56:16Z</time>
      </trkpt>
      <trkpt lat="42.00493" lon="8.93751">
        <ele>708</ele>
        <time>2015-02-18T11:56:29Z</time>
      </trkpt>
      <trkpt lat="42.00495" lon="8.93744">
        <ele>709</ele>
        <time>2015-02-18T11:56:51Z</time>
      </trkpt>
      <trkpt lat="42.00498" lon="8.93725">
        <ele>700</ele>
        <time>2015-02-18T11:57:29Z</time>
      </trkpt>
      <trkpt lat="42.00497" lon="8.93717">
        <ele>698</ele>
        <time>2015-02-18T11:57:45Z</time>
      </trkpt>
      <trkpt lat="42.005" lon="8.93706">
        <ele>691</ele>
        <time>2015-02-18T11:58:12Z</time>
      </trkpt>
      <trkpt lat="42.00507" lon="8.9368">
        <ele>690</ele>
        <time>2015-02-18T11:58:35Z</time>
      </trkpt>
      <trkpt lat="42.00512" lon="8.9367">
        <ele>688</ele>
        <time>2015-02-18T11:58:46Z</time>
      </trkpt>
      <trkpt lat="42.00515" lon="8.93648">
        <ele>691</ele>
        <time>2015-02-18T11:59:18Z</time>
      </trkpt>
      <trkpt lat="42.00522" lon="8.93638">
        <ele>699</ele>
        <time>2015-02-18T12:00:27Z</time>
      </trkpt>
      <trkpt lat="42.00521" lon="8.93634">
        <ele>700</ele>
        <time>2015-02-18T12:00:39Z</time>
      </trkpt>
      <trkpt lat="42.0052" lon="8.93627">
        <ele>700</ele>
        <time>2015-02-18T12:01:02Z</time>
      </trkpt>
      <trkpt lat="42.00525" lon="8.93628">
        <ele>704</ele>
        <time>2015-02-18T12:01:57Z</time>
      </trkpt>
      <trkpt lat="42.00532" lon="8.93627">
        <ele>702</ele>
        <time>2015-02-18T12:02:40Z</time>
      </trkpt>
      <trkpt lat="42.00533" lon="8.93623">
        <ele>705</ele>
        <time>2015-02-18T12:03:10Z</time>
      </trkpt>
      <trkpt lat="42.00531" lon="8.93621">
        <ele>706</ele>
        <time>2015-02-18T12:03:27Z</time>
      </trkpt>
      <trkpt lat="42.00535" lon="8.93615">
        <ele>707</ele>
        <time>2015-02-18T12:03:41Z</time>
      </trkpt>
      <trkpt lat="42.00539" lon="8.93612">
        <ele>710</ele>
        <time>2015-02-18T12:03:49Z</time>
      </trkpt>
      <trkpt lat="42.00535" lon="8.93605">
        <ele>704</ele>
        <time>2015-02-18T12:04:46Z</time>
      </trkpt>
      <trkpt lat="42.00538" lon="8.93596">
        <ele>704</ele>
        <time>2015-02-18T12:05:43Z</time>
      </trkpt>
      <trkpt lat="42.00537" lon="8.93593">
        <ele>703</ele>
        <time>2015-02-18T12:05:50Z</time>
      </trkpt>
      <trkpt lat="42.00542" lon="8.9359">
        <ele>710</ele>
        <time>2015-02-18T12:06:52Z</time>
      </trkpt>
      <trkpt lat="42.00548" lon="8.93586">
        <ele>715</ele>
        <time>2015-02-18T12:11:17Z</time>
      </trkpt>
      <trkpt lat="42.00549" lon="8.9358">
        <ele>720</ele>
        <time>2015-02-18T12:11:47Z</time>
      </trkpt>
      <trkpt lat="42.00551" lon="8.93579">
        <ele>724</ele>
        <time>2015-02-18T12:31:14Z</time>
      </trkpt>
      <trkpt lat="42.00553" lon="8.93582">
        <ele>724</ele>
        <time>2015-02-18T12:34:27Z</time>
      </trkpt>
      <trkpt lat="42.00553" lon="8.93581">
        <ele>724</ele>
        <time>2015-02-18T12:37:21Z</time>
      </trkpt>
      <trkpt lat="42.00552" lon="8.93581">
        <ele>724</ele>
        <time>2015-02-18T12:43:16Z</time>
      </trkpt>
      <trkpt lat="42.00551" lon="8.93579">
        <ele>723</ele>
        <time>2015-02-18T12:50:19Z</time>
      </trkpt>
      <trkpt lat="42.00547" lon="8.9358">
        <ele>725</ele>
        <time>2015-02-18T12:51:48Z</time>
      </trkpt>
      <trkpt lat="42.00551" lon="8.93581">
        <ele>725</ele>
        <time>2015-02-18T12:53:18Z</time>
      </trkpt>
      <trkpt lat="42.00551" lon="8.93583">
        <ele>718</ele>
        <time>2015-02-18T12:59:35Z</time>
      </trkpt>
      <trkpt lat="42.00559" lon="8.93582">
        <ele>718</ele>
        <time>2015-02-18T13:00:30Z</time>
      </trkpt>
    </trkseg>
  </trk>
</gpx>